sensor_id;sensor_type;location;lat;lon;timestamp;pressure;altitude;pressure_sealevel;temperature;humidity
79707;BME280;69200;53.612;-2.416;2023-12-04T00:01:11;98619.13;;;0.98;100.00
79707;BME280;69200;53.612;-2.416;2023-12-04T00:03:36;98622.41;;;1.00;100.00
79707;BME280;69200;53.612;-2.416;2023-12-04T00:06:02;98607.81;;;1.02;100.00
79707;BME280;69200;53.612;-2.416;2023-12-04T00:08:27;98606.16;;;1.01;100.00
79707;BME280;69200;53.612;-2.416;2023-12-04T00:10:53;98609.63;;;1.08;100.00
79707;BME280;69200;53.612;-2.416;2023-12-04T00:13:19;98596.28;;;1.08;100.00
79707;BME280;69200;53.612;-2.416;2023-12-04T00:15:44;98600.38;;;1.11;100.00
79707;BME280;69200;53.612;-2.416;2023-12-04T00:18:10;98604.31;;;1.02;100.00
79707;BME280;69200;53.612;-2.416;2023-12-04T00:20:35;98583.16;;;1.00;100.00
79707;BME280;69200;53.612;-2.416;2023-12-04T00:23:02;98585.22;;;1.05;100.00
79707;BME280;69200;53.612;-2.416;2023-12-04T00:25:27;98585.63;;;0.95;100.00
79707;BME280;69200;53.612;-2.416;2023-12-04T00:27:52;98585.84;;;1.00;100.00
79707;BME280;69200;53.612;-2.416;2023-12-04T00:30:18;98584.41;;;0.98;100.00
79707;BME280;69200;53.612;-2.416;2023-12-04T00:32:43;98575.75;;;1.02;100.00
79707;BME280;69200;53.612;-2.416;2023-12-04T00:35:09;98575.16;;;0.94;100.00
79707;BME280;69200;53.612;-2.416;2023-12-04T00:37:34;98567.34;;;0.99;100.00
79707;BME280;69200;53.612;-2.416;2023-12-04T00:40:04;98558.09;;;1.01;100.00
79707;BME280;69200;53.612;-2.416;2023-12-04T00:42:29;98551.97;;;0.88;100.00
79707;BME280;69200;53.612;-2.416;2023-12-04T00:44:55;98553.19;;;0.92;100.00
79707;BME280;69200;53.612;-2.416;2023-12-04T00:47:20;98547.03;;;0.98;100.00
79707;BME280;69200;53.612;-2.416;2023-12-04T00:49:46;98542.50;;;0.98;100.00
79707;BME280;69200;53.612;-2.416;2023-12-04T00:52:11;98543.78;;;0.89;100.00
79707;BME280;69200;53.612;-2.416;2023-12-04T00:54:41;98534.72;;;0.97;100.00
79707;BME280;69200;53.612;-2.416;2023-12-04T00:57:07;98532.22;;;1.02;100.00
79707;BME280;69200;53.612;-2.416;2023-12-04T00:59:32;98516.41;;;1.00;100.00
79707;BME280;69200;53.612;-2.416;2023-12-04T01:01:57;98524.63;;;0.99;100.00
79707;BME280;69200;53.612;-2.416;2023-12-04T01:04:23;98516.19;;;1.02;100.00
79707;BME280;69200;53.612;-2.416;2023-12-04T01:06:48;98501.00;;;0.96;100.00
79707;BME280;69200;53.612;-2.416;2023-12-04T01:09:13;98504.47;;;1.03;100.00
79707;BME280;69200;53.612;-2.416;2023-12-04T01:11:39;98502.81;;;1.08;100.00
79707;BME280;69200;53.612;-2.416;2023-12-04T01:14:04;98497.69;;;1.07;100.00
79707;BME280;69200;53.612;-2.416;2023-12-04T01:16:29;98503.03;;;1.07;100.00
79707;BME280;69200;53.612;-2.416;2023-12-04T01:18:56;98491.66;;;1.18;100.00
79707;BME280;69200;53.612;-2.416;2023-12-04T01:21:21;98482.44;;;1.14;100.00
79707;BME280;69200;53.612;-2.416;2023-12-04T01:23:46;98478.53;;;1.17;100.00
79707;BME280;69200;53.612;-2.416;2023-12-04T01:26:12;98480.13;;;1.24;100.00
79707;BME280;69200;53.612;-2.416;2023-12-04T01:28:37;98470.44;;;1.30;100.00
79707;BME280;69200;53.612;-2.416;2023-12-04T01:31:02;98464.44;;;1.34;100.00
79707;BME280;69200;53.612;-2.416;2023-12-04T01:33:29;98453.59;;;1.29;100.00
79707;BME280;69200;53.612;-2.416;2023-12-04T01:35:54;98454.38;;;1.36;100.00
79707;BME280;69200;53.612;-2.416;2023-12-04T01:38:20;98448.00;;;1.37;100.00
79707;BME280;69200;53.612;-2.416;2023-12-04T01:40:45;98431.97;;;1.37;100.00
79707;BME280;69200;53.612;-2.416;2023-12-04T01:43:10;98451.06;;;1.34;100.00
79707;BME280;69200;53.612;-2.416;2023-12-04T01:45:36;98439.09;;;1.44;100.00
79707;BME280;69200;53.612;-2.416;2023-12-04T01:48:02;98429.88;;;1.39;100.00
79707;BME280;69200;53.612;-2.416;2023-12-04T01:50:28;98431.34;;;1.35;100.00
79707;BME280;69200;53.612;-2.416;2023-12-04T01:52:54;98433.19;;;1.35;100.00
79707;BME280;69200;53.612;-2.416;2023-12-04T01:55:19;98431.88;;;1.44;100.00
79707;BME280;69200;53.612;-2.416;2023-12-04T01:57:47;98425.53;;;1.45;100.00
79707;BME280;69200;53.612;-2.416;2023-12-04T02:00:13;98437.03;;;1.46;100.00
79707;BME280;69200;53.612;-2.416;2023-12-04T02:02:40;98447.50;;;1.47;100.00
79707;BME280;69200;53.612;-2.416;2023-12-04T02:05:07;98430.22;;;1.50;100.00
79707;BME280;69200;53.612;-2.416;2023-12-04T02:07:33;98427.13;;;1.53;100.00
79707;BME280;69200;53.612;-2.416;2023-12-04T02:09:59;98424.28;;;1.48;100.00
79707;BME280;69200;53.612;-2.416;2023-12-04T02:12:24;98403.34;;;1.45;100.00
79707;BME280;69200;53.612;-2.416;2023-12-04T02:14:51;98415.03;;;1.44;100.00
79707;BME280;69200;53.612;-2.416;2023-12-04T02:17:16;98415.22;;;1.49;100.00
79707;BME280;69200;53.612;-2.416;2023-12-04T02:19:42;98417.06;;;1.48;100.00
79707;BME280;69200;53.612;-2.416;2023-12-04T02:22:08;98401.63;;;1.50;100.00
79707;BME280;69200;53.612;-2.416;2023-12-04T02:24:33;98407.16;;;1.55;100.00
79707;BME280;69200;53.612;-2.416;2023-12-04T02:27:10;98399.94;;;1.56;100.00
79707;BME280;69200;53.612;-2.416;2023-12-04T02:29:59;98403.06;;;1.53;100.00
79707;BME280;69200;53.612;-2.416;2023-12-04T02:32:28;98395.59;;;1.61;100.00
79707;BME280;69200;53.612;-2.416;2023-12-04T02:34:56;98401.94;;;1.60;100.00
79707;BME280;69200;53.612;-2.416;2023-12-04T02:37:22;98400.53;;;1.58;100.00
79707;BME280;69200;53.612;-2.416;2023-12-04T02:39:49;98401.47;;;1.70;100.00
79707;BME280;69200;53.612;-2.416;2023-12-04T02:42:18;98404.78;;;1.65;100.00
79707;BME280;69200;53.612;-2.416;2023-12-04T02:44:44;98418.47;;;1.76;100.00
79707;BME280;69200;53.612;-2.416;2023-12-04T02:47:09;98405.38;;;1.67;100.00
79707;BME280;69200;53.612;-2.416;2023-12-04T02:49:35;98399.66;;;1.64;100.00
79707;BME280;69200;53.612;-2.416;2023-12-04T02:52:00;98394.91;;;1.66;100.00
79707;BME280;69200;53.612;-2.416;2023-12-04T02:54:25;98390.28;;;1.55;100.00
79707;BME280;69200;53.612;-2.416;2023-12-04T02:56:51;98388.44;;;1.55;100.00
79707;BME280;69200;53.612;-2.416;2023-12-04T02:59:16;98390.72;;;1.52;100.00
79707;BME280;69200;53.612;-2.416;2023-12-04T03:01:41;98384.72;;;1.56;100.00
79707;BME280;69200;53.612;-2.416;2023-12-04T03:04:07;98388.66;;;1.54;100.00
79707;BME280;69200;53.612;-2.416;2023-12-04T03:06:32;98384.19;;;1.48;100.00
79707;BME280;69200;53.612;-2.416;2023-12-04T03:08:58;98374.47;;;1.53;100.00
79707;BME280;69200;53.612;-2.416;2023-12-04T03:11:25;98370.16;;;1.52;100.00
79707;BME280;69200;53.612;-2.416;2023-12-04T03:13:50;98382.09;;;1.50;100.00
79707;BME280;69200;53.612;-2.416;2023-12-04T03:16:17;98360.91;;;1.55;100.00
79707;BME280;69200;53.612;-2.416;2023-12-04T03:18:42;98356.50;;;1.60;100.00
79707;BME280;69200;53.612;-2.416;2023-12-04T03:21:08;98362.19;;;1.71;100.00
79707;BME280;69200;53.612;-2.416;2023-12-04T03:23:33;98355.81;;;1.72;100.00
79707;BME280;69200;53.612;-2.416;2023-12-04T03:25:59;98370.81;;;1.73;100.00
79707;BME280;69200;53.612;-2.416;2023-12-04T03:28:24;98353.28;;;1.77;100.00
79707;BME280;69200;53.612;-2.416;2023-12-04T03:30:49;98341.03;;;1.69;100.00
79707;BME280;69200;53.612;-2.416;2023-12-04T03:33:15;98356.09;;;1.82;100.00
79707;BME280;69200;53.612;-2.416;2023-12-04T03:35:40;98346.81;;;1.84;100.00
79707;BME280;69200;53.612;-2.416;2023-12-04T03:38:05;98345.00;;;1.85;100.00
79707;BME280;69200;53.612;-2.416;2023-12-04T03:40:31;98341.84;;;1.88;100.00
79707;BME280;69200;53.612;-2.416;2023-12-04T03:42:56;98334.88;;;1.87;100.00
79707;BME280;69200;53.612;-2.416;2023-12-04T03:45:22;98327.56;;;1.76;100.00
79707;BME280;69200;53.612;-2.416;2023-12-04T03:47:47;98326.63;;;1.70;100.00
79707;BME280;69200;53.612;-2.416;2023-12-04T03:50:13;98337.09;;;1.72;100.00
79707;BME280;69200;53.612;-2.416;2023-12-04T03:52:38;98320.22;;;1.71;100.00
79707;BME280;69200;53.612;-2.416;2023-12-04T03:55:04;98312.44;;;1.70;100.00
79707;BME280;69200;53.612;-2.416;2023-12-04T03:57:30;98308.94;;;1.69;100.00
79707;BME280;69200;53.612;-2.416;2023-12-04T03:59:55;98303.38;;;1.71;100.00
79707;BME280;69200;53.612;-2.416;2023-12-04T04:02:20;98310.13;;;1.73;100.00
79707;BME280;69200;53.612;-2.416;2023-12-04T04:04:46;98303.97;;;1.73;100.00
79707;BME280;69200;53.612;-2.416;2023-12-04T04:07:11;98301.28;;;1.73;100.00
79707;BME280;69200;53.612;-2.416;2023-12-04T04:09:36;98288.44;;;1.81;100.00
79707;BME280;69200;53.612;-2.416;2023-12-04T04:12:02;98292.97;;;1.81;100.00
79707;BME280;69200;53.612;-2.416;2023-12-04T04:14:28;98287.84;;;1.79;100.00
79707;BME280;69200;53.612;-2.416;2023-12-04T04:16:53;98280.19;;;1.83;100.00
79707;BME280;69200;53.612;-2.416;2023-12-04T04:19:18;98277.16;;;1.79;100.00
79707;BME280;69200;53.612;-2.416;2023-12-04T04:21:44;98270.19;;;1.78;100.00
79707;BME280;69200;53.612;-2.416;2023-12-04T04:24:09;98264.09;;;1.71;100.00
79707;BME280;69200;53.612;-2.416;2023-12-04T04:26:35;98274.78;;;1.71;100.00
79707;BME280;69200;53.612;-2.416;2023-12-04T04:29:00;98265.34;;;1.68;100.00
79707;BME280;69200;53.612;-2.416;2023-12-04T04:31:25;98246.53;;;1.75;100.00
79707;BME280;69200;53.612;-2.416;2023-12-04T04:33:51;98251.91;;;1.75;100.00
79707;BME280;69200;53.612;-2.416;2023-12-04T04:36:16;98257.03;;;1.77;100.00
79707;BME280;69200;53.612;-2.416;2023-12-04T04:38:41;98248.25;;;1.88;100.00
79707;BME280;69200;53.612;-2.416;2023-12-04T04:41:07;98244.84;;;1.81;100.00
79707;BME280;69200;53.612;-2.416;2023-12-04T04:43:32;98241.13;;;1.82;100.00
79707;BME280;69200;53.612;-2.416;2023-12-04T04:45:58;98247.06;;;1.84;100.00
79707;BME280;69200;53.612;-2.416;2023-12-04T04:48:24;98241.81;;;1.77;100.00
79707;BME280;69200;53.612;-2.416;2023-12-04T04:50:49;98248.78;;;1.78;100.00
79707;BME280;69200;53.612;-2.416;2023-12-04T04:53:14;98239.22;;;1.71;100.00
79707;BME280;69200;53.612;-2.416;2023-12-04T04:55:40;98224.97;;;1.77;100.00
79707;BME280;69200;53.612;-2.416;2023-12-04T04:58:05;98237.28;;;1.78;100.00
79707;BME280;69200;53.612;-2.416;2023-12-04T05:00:30;98234.31;;;1.86;100.00
79707;BME280;69200;53.612;-2.416;2023-12-04T05:02:56;98219.66;;;1.88;100.00
79707;BME280;69200;53.612;-2.416;2023-12-04T05:05:21;98195.66;;;1.82;100.00
79707;BME280;69200;53.612;-2.416;2023-12-04T05:07:46;98213.13;;;1.84;100.00
79707;BME280;69200;53.612;-2.416;2023-12-04T05:10:12;98216.75;;;1.90;100.00
79707;BME280;69200;53.612;-2.416;2023-12-04T05:12:37;98219.06;;;1.86;100.00
79707;BME280;69200;53.612;-2.416;2023-12-04T05:15:02;98206.75;;;1.85;100.00
79707;BME280;69200;53.612;-2.416;2023-12-04T05:17:28;98223.00;;;1.84;100.00
79707;BME280;69200;53.612;-2.416;2023-12-04T05:19:53;98206.38;;;1.82;100.00
79707;BME280;69200;53.612;-2.416;2023-12-04T05:22:19;98221.75;;;1.86;100.00
79707;BME280;69200;53.612;-2.416;2023-12-04T05:24:44;98212.69;;;1.87;100.00
79707;BME280;69200;53.612;-2.416;2023-12-04T05:27:09;98207.09;;;1.89;100.00
79707;BME280;69200;53.612;-2.416;2023-12-04T05:29:35;98203.63;;;1.88;100.00
79707;BME280;69200;53.612;-2.416;2023-12-04T05:32:00;98204.44;;;1.89;100.00
79707;BME280;69200;53.612;-2.416;2023-12-04T05:34:25;98204.19;;;1.90;100.00
79707;BME280;69200;53.612;-2.416;2023-12-04T05:36:51;98197.59;;;1.93;100.00
79707;BME280;69200;53.612;-2.416;2023-12-04T05:39:16;98197.38;;;1.94;100.00
79707;BME280;69200;53.612;-2.416;2023-12-04T05:41:41;98193.19;;;1.99;100.00
79707;BME280;69200;53.612;-2.416;2023-12-04T05:44:07;98190.16;;;1.95;100.00
79707;BME280;69200;53.612;-2.416;2023-12-04T05:46:32;98191.31;;;1.99;100.00
79707;BME280;69200;53.612;-2.416;2023-12-04T05:48:57;98175.50;;;1.98;100.00
79707;BME280;69200;53.612;-2.416;2023-12-04T05:51:23;98170.75;;;2.00;100.00
79707;BME280;69200;53.612;-2.416;2023-12-04T05:53:48;98174.75;;;2.09;100.00
79707;BME280;69200;53.612;-2.416;2023-12-04T05:56:14;98172.66;;;2.11;100.00
79707;BME280;69200;53.612;-2.416;2023-12-04T05:58:39;98174.06;;;2.13;100.00
79707;BME280;69200;53.612;-2.416;2023-12-04T06:01:05;98169.53;;;2.14;100.00
79707;BME280;69200;53.612;-2.416;2023-12-04T06:03:31;98171.06;;;2.21;100.00
79707;BME280;69200;53.612;-2.416;2023-12-04T06:05:57;98165.56;;;2.16;100.00
79707;BME280;69200;53.612;-2.416;2023-12-04T06:08:22;98158.97;;;2.19;100.00
79707;BME280;69200;53.612;-2.416;2023-12-04T06:10:48;98163.84;;;2.22;100.00
79707;BME280;69200;53.612;-2.416;2023-12-04T06:13:13;98137.91;;;2.22;100.00
79707;BME280;69200;53.612;-2.416;2023-12-04T06:15:38;98148.16;;;2.26;100.00
79707;BME280;69200;53.612;-2.416;2023-12-04T06:18:04;98150.84;;;2.26;100.00
79707;BME280;69200;53.612;-2.416;2023-12-04T06:20:29;98152.97;;;2.35;100.00
79707;BME280;69200;53.612;-2.416;2023-12-04T06:22:55;98144.88;;;2.23;100.00
79707;BME280;69200;53.612;-2.416;2023-12-04T06:25:21;98134.56;;;2.27;100.00
79707;BME280;69200;53.612;-2.416;2023-12-04T06:27:47;98140.50;;;2.29;100.00
79707;BME280;69200;53.612;-2.416;2023-12-04T06:30:12;98124.19;;;2.31;100.00
79707;BME280;69200;53.612;-2.416;2023-12-04T06:32:38;98146.47;;;2.43;100.00
79707;BME280;69200;53.612;-2.416;2023-12-04T06:35:04;98136.00;;;2.41;100.00
79707;BME280;69200;53.612;-2.416;2023-12-04T06:37:31;98136.31;;;2.45;100.00
79707;BME280;69200;53.612;-2.416;2023-12-04T06:39:59;98149.47;;;2.46;100.00
79707;BME280;69200;53.612;-2.416;2023-12-04T06:42:26;98136.00;;;2.41;100.00
79707;BME280;69200;53.612;-2.416;2023-12-04T06:44:51;98136.00;;;2.41;100.00
79707;BME280;69200;53.612;-2.416;2023-12-04T06:47:19;98131.06;;;2.38;100.00
79707;BME280;69200;53.612;-2.416;2023-12-04T06:49:47;98134.00;;;2.37;100.00
79707;BME280;69200;53.612;-2.416;2023-12-04T06:52:12;98142.59;;;2.39;100.00
79707;BME280;69200;53.612;-2.416;2023-12-04T06:54:37;98131.88;;;2.39;100.00
79707;BME280;69200;53.612;-2.416;2023-12-04T06:57:03;98130.72;;;2.35;100.00
79707;BME280;69200;53.612;-2.416;2023-12-04T06:59:29;98117.13;;;2.36;100.00
79707;BME280;69200;53.612;-2.416;2023-12-04T07:01:54;98131.22;;;2.43;100.00
79707;BME280;69200;53.612;-2.416;2023-12-04T07:04:21;98134.47;;;2.45;100.00
79707;BME280;69200;53.612;-2.416;2023-12-04T07:06:47;98125.28;;;2.41;100.00
79707;BME280;69200;53.612;-2.416;2023-12-04T07:09:15;98120.59;;;2.48;100.00
79707;BME280;69200;53.612;-2.416;2023-12-04T07:11:44;98134.00;;;2.48;100.00
79707;BME280;69200;53.612;-2.416;2023-12-04T07:14:09;98125.97;;;2.48;100.00
79707;BME280;69200;53.612;-2.416;2023-12-04T07:16:39;98123.19;;;2.43;100.00
79707;BME280;69200;53.612;-2.416;2023-12-04T07:19:05;98131.88;;;2.39;100.00
79707;BME280;69200;53.612;-2.416;2023-12-04T07:21:31;98135.19;;;2.41;100.00
79707;BME280;69200;53.612;-2.416;2023-12-04T07:23:56;98124.69;;;2.39;100.00
79707;BME280;69200;53.612;-2.416;2023-12-04T07:26:21;98121.09;;;2.45;100.00
79707;BME280;69200;53.612;-2.416;2023-12-04T07:28:47;98118.66;;;2.44;100.00
79707;BME280;69200;53.612;-2.416;2023-12-04T07:31:12;98127.50;;;2.44;100.00
79707;BME280;69200;53.612;-2.416;2023-12-04T07:33:37;98125.84;;;2.43;100.00
79707;BME280;69200;53.612;-2.416;2023-12-04T07:36:03;98125.28;;;2.41;100.00
79707;BME280;69200;53.612;-2.416;2023-12-04T07:38:28;98123.19;;;2.43;100.00
79707;BME280;69200;53.612;-2.416;2023-12-04T07:40:54;98124.94;;;2.49;100.00
79707;BME280;69200;53.612;-2.416;2023-12-04T07:43:19;98125.84;;;2.43;100.00
79707;BME280;69200;53.612;-2.416;2023-12-04T07:45:45;98130.16;;;2.44;100.00
79707;BME280;69200;53.612;-2.416;2023-12-04T07:48:10;98135.66;;;2.49;100.00
79707;BME280;69200;53.612;-2.416;2023-12-04T07:50:35;98127.72;;;2.43;100.00
79707;BME280;69200;53.612;-2.416;2023-12-04T07:53:03;98130.41;;;2.43;100.00
79707;BME280;69200;53.612;-2.416;2023-12-04T07:55:28;98138.78;;;2.46;100.00
79707;BME280;69200;53.612;-2.416;2023-12-04T07:57:54;98133.75;;;2.38;100.00
79707;BME280;69200;53.612;-2.416;2023-12-04T08:00:21;98137.84;;;2.41;100.00
79707;BME280;69200;53.612;-2.416;2023-12-04T08:02:48;98142.03;;;2.48;100.00
79707;BME280;69200;53.612;-2.416;2023-12-04T08:05:13;98131.44;;;2.42;100.00
79707;BME280;69200;53.612;-2.416;2023-12-04T08:07:39;98136.22;;;2.51;100.00
79707;BME280;69200;53.612;-2.416;2023-12-04T08:10:05;98131.44;;;2.53;100.00
79707;BME280;69200;53.612;-2.416;2023-12-04T08:12:31;98132.97;;;2.49;100.00
79707;BME280;69200;53.612;-2.416;2023-12-04T08:14:57;98125.97;;;2.48;100.00
79707;BME280;69200;53.612;-2.416;2023-12-04T08:17:22;98136.47;;;2.50;100.00
79707;BME280;69200;53.612;-2.416;2023-12-04T08:19:47;98138.44;;;2.55;100.00
79707;BME280;69200;53.612;-2.416;2023-12-04T08:22:13;98131.34;;;2.60;100.00
79707;BME280;69200;53.612;-2.416;2023-12-04T08:24:38;98129.59;;;2.54;100.00
79707;BME280;69200;53.612;-2.416;2023-12-04T08:27:04;98132.03;;;2.56;100.00
79707;BME280;69200;53.612;-2.416;2023-12-04T08:29:29;98128.31;;;2.57;100.00
79707;BME280;69200;53.612;-2.416;2023-12-04T08:31:54;98142.63;;;2.62;100.00
79707;BME280;69200;53.612;-2.416;2023-12-04T08:34:20;98126.22;;;2.59;100.00
79707;BME280;69200;53.612;-2.416;2023-12-04T08:36:45;98128.53;;;2.55;100.00
79707;BME280;69200;53.612;-2.416;2023-12-04T08:39:10;98131.22;;;2.55;100.00
79707;BME280;69200;53.612;-2.416;2023-12-04T08:41:36;98126.44;;;2.45;100.00
79707;BME280;69200;53.612;-2.416;2023-12-04T08:44:02;98143.78;;;2.43;100.00
79707;BME280;69200;53.612;-2.416;2023-12-04T08:46:27;98148.31;;;2.42;100.00
79707;BME280;69200;53.612;-2.416;2023-12-04T08:48:53;98139.25;;;2.43;100.00
79707;BME280;69200;53.612;-2.416;2023-12-04T08:51:19;98147.03;;;2.45;100.00
79707;BME280;69200;53.612;-2.416;2023-12-04T08:53:44;98146.81;;;2.46;100.00
79707;BME280;69200;53.612;-2.416;2023-12-04T08:56:10;98146.56;;;2.48;100.00
79707;BME280;69200;53.612;-2.416;2023-12-04T08:58:36;98150.38;;;2.40;100.00
79707;BME280;69200;53.612;-2.416;2023-12-04T09:01:01;98151.47;;;2.51;100.00
79707;BME280;69200;53.612;-2.416;2023-12-04T09:03:27;98149.84;;;2.50;100.00
79707;BME280;69200;53.612;-2.416;2023-12-04T09:05:52;98153.56;;;2.49;100.00
79707;BME280;69200;53.612;-2.416;2023-12-04T09:08:22;98155.41;;;2.48;100.00
79707;BME280;69200;53.612;-2.416;2023-12-04T09:10:48;98153.78;;;2.47;100.00
79707;BME280;69200;53.612;-2.416;2023-12-04T09:13:14;98159.13;;;2.47;100.00
79707;BME280;69200;53.612;-2.416;2023-12-04T09:15:39;98159.13;;;2.47;100.00
79707;BME280;69200;53.612;-2.416;2023-12-04T09:18:05;98155.19;;;2.50;100.00
79707;BME280;69200;53.612;-2.416;2023-12-04T09:20:30;98155.34;;;2.67;100.00
79707;BME280;69200;53.612;-2.416;2023-12-04T09:22:56;98152.88;;;2.53;100.00
79707;BME280;69200;53.612;-2.416;2023-12-04T09:25:21;98151.81;;;2.55;100.00
79707;BME280;69200;53.612;-2.416;2023-12-04T09:27:46;98159.28;;;2.64;100.00
79707;BME280;69200;53.612;-2.416;2023-12-04T09:30:12;98161.94;;;2.64;100.00
79707;BME280;69200;53.612;-2.416;2023-12-04T09:32:39;98162.91;;;2.70;100.00
79707;BME280;69200;53.612;-2.416;2023-12-04T09:35:04;98153.72;;;2.66;100.00
79707;BME280;69200;53.612;-2.416;2023-12-04T09:37:30;98160.94;;;2.77;100.00
79707;BME280;69200;53.612;-2.416;2023-12-04T09:39:55;98158.81;;;2.79;100.00
79707;BME280;69200;53.612;-2.416;2023-12-04T09:42:21;98157.56;;;2.82;100.00
79707;BME280;69200;53.612;-2.416;2023-12-04T09:44:47;98144.16;;;2.70;100.00
79707;BME280;69200;53.612;-2.416;2023-12-04T09:47:17;98161.16;;;2.87;100.00
79707;BME280;69200;53.612;-2.416;2023-12-04T09:49:44;98147.91;;;2.92;100.00
79707;BME280;69200;53.612;-2.416;2023-12-04T09:52:09;98146.00;;;3.04;100.00
79707;BME280;69200;53.612;-2.416;2023-12-04T09:54:35;98147.31;;;3.02;100.00
79707;BME280;69200;53.612;-2.416;2023-12-04T09:57:01;98148.38;;;2.89;100.00
79707;BME280;69200;53.612;-2.416;2023-12-04T09:59:27;98146.03;;;2.81;100.00
79707;BME280;69200;53.612;-2.416;2023-12-04T10:01:55;98144.97;;;2.94;100.00
79707;BME280;69200;53.612;-2.416;2023-12-04T10:04:21;98153.50;;;2.91;100.00
79707;BME280;69200;53.612;-2.416;2023-12-04T10:06:49;98149.06;;;2.85;100.00
79707;BME280;69200;53.612;-2.416;2023-12-04T10:09:16;98144.03;;;2.76;100.00
79707;BME280;69200;53.612;-2.416;2023-12-04T10:11:44;98148.34;;;2.77;100.00
79707;BME280;69200;53.612;-2.416;2023-12-04T10:14:20;98154.88;;;2.82;100.00
79707;BME280;69200;53.612;-2.416;2023-12-04T10:16:46;98155.56;;;2.77;100.00
79707;BME280;69200;53.612;-2.416;2023-12-04T10:19:21;98164.31;;;2.84;100.00
79707;BME280;69200;53.612;-2.416;2023-12-04T10:21:49;98150.78;;;2.79;100.00
79707;BME280;69200;53.612;-2.416;2023-12-04T10:24:36;98163.13;;;2.80;100.00
79707;BME280;69200;53.612;-2.416;2023-12-04T10:27:03;98160.44;;;2.80;100.00
79707;BME280;69200;53.612;-2.416;2023-12-04T10:29:54;98153.38;;;2.86;100.00
79707;BME280;69200;53.612;-2.416;2023-12-04T10:32:21;98160.00;;;2.83;100.00
79707;BME280;69200;53.612;-2.416;2023-12-04T10:34:50;98155.47;;;2.84;100.00
79707;BME280;69200;53.612;-2.416;2023-12-04T10:37:15;98152.31;;;2.87;100.00
79707;BME280;69200;53.612;-2.416;2023-12-04T10:39:46;98151.50;;;2.98;100.00
79707;BME280;69200;53.612;-2.416;2023-12-04T10:42:23;98157.44;;;2.88;100.00
79707;BME280;69200;53.612;-2.416;2023-12-04T10:44:48;98155.69;;;3.05;100.00
79707;BME280;69200;53.612;-2.416;2023-12-04T10:47:14;98152.09;;;3.00;100.00
79707;BME280;69200;53.612;-2.416;2023-12-04T10:49:40;98148.22;;;2.96;100.00
79707;BME280;69200;53.612;-2.416;2023-12-04T10:52:08;98157.78;;;3.03;100.00
79707;BME280;69200;53.612;-2.416;2023-12-04T10:54:34;98143.22;;;3.11;100.00
79707;BME280;69200;53.612;-2.416;2023-12-04T10:57:01;98150.91;;;3.07;100.00
79707;BME280;69200;53.612;-2.416;2023-12-04T10:59:32;98149.28;;;3.18;100.00
79707;BME280;69200;53.612;-2.416;2023-12-04T11:02:01;98150.44;;;3.22;100.00
79707;BME280;69200;53.612;-2.416;2023-12-04T11:04:29;98134.25;;;3.29;100.00
79707;BME280;69200;53.612;-2.416;2023-12-04T11:06:59;98141.59;;;3.22;100.00
79707;BME280;69200;53.612;-2.416;2023-12-04T11:09:26;98136.81;;;3.24;100.00
79707;BME280;69200;53.612;-2.416;2023-12-04T11:11:57;98139.59;;;3.29;100.00
79707;BME280;69200;53.612;-2.416;2023-12-04T11:14:23;98135.97;;;3.35;100.00
79707;BME280;69200;53.612;-2.416;2023-12-04T11:16:58;98133.75;;;3.32;100.00
79707;BME280;69200;53.612;-2.416;2023-12-04T11:19:29;98139.56;;;3.41;100.00
79707;BME280;69200;53.612;-2.416;2023-12-04T11:21:58;98147.59;;;3.41;100.00
79707;BME280;69200;53.612;-2.416;2023-12-04T11:24:24;98144.22;;;3.45;100.00
79707;BME280;69200;53.612;-2.416;2023-12-04T11:26:50;98135.59;;;3.43;100.00
79707;BME280;69200;53.612;-2.416;2023-12-04T11:29:16;98133.53;;;3.33;100.00
79707;BME280;69200;53.612;-2.416;2023-12-04T11:31:42;98132.44;;;3.46;100.00
79707;BME280;69200;53.612;-2.416;2023-12-04T11:34:08;98133.16;;;3.42;100.00
79707;BME280;69200;53.612;-2.416;2023-12-04T11:36:37;98129.78;;;3.46;100.00
79707;BME280;69200;53.612;-2.416;2023-12-04T11:39:02;98130.91;;;3.50;100.00
79707;BME280;69200;53.612;-2.416;2023-12-04T11:41:29;98126.34;;;3.62;100.00
79707;BME280;69200;53.612;-2.416;2023-12-04T11:43:56;98127.84;;;3.58;100.00
79707;BME280;69200;53.612;-2.416;2023-12-04T11:46:26;98124.91;;;3.72;100.00
79707;BME280;69200;53.612;-2.416;2023-12-04T11:48:56;98129.41;;;3.54;100.00
79707;BME280;69200;53.612;-2.416;2023-12-04T11:54:09;98117.25;;;3.63;100.00
79707;BME280;69200;53.612;-2.416;2023-12-04T11:56:35;98122.69;;;3.69;100.00
79707;BME280;69200;53.612;-2.416;2023-12-04T11:59:05;98120.75;;;3.52;99.89
79707;BME280;69200;53.612;-2.416;2023-12-04T12:01:36;98119.34;;;3.61;100.00
79707;BME280;69200;53.612;-2.416;2023-12-04T12:04:04;98132.75;;;3.61;99.54
79707;BME280;69200;53.612;-2.416;2023-12-04T12:06:29;98118.88;;;3.64;100.00
79707;BME280;69200;53.612;-2.416;2023-12-04T12:08:56;98117.69;;;3.60;100.00
79707;BME280;69200;53.612;-2.416;2023-12-04T12:11:23;98130.28;;;3.60;99.71
79707;BME280;69200;53.612;-2.416;2023-12-04T12:13:48;98131.16;;;3.49;100.00
79707;BME280;69200;53.612;-2.416;2023-12-04T12:16:14;98129.03;;;3.62;100.00
79707;BME280;69200;53.612;-2.416;2023-12-04T12:18:40;98134.47;;;3.68;100.00
79707;BME280;69200;53.612;-2.416;2023-12-04T12:21:06;98124.84;;;3.55;99.79
79707;BME280;69200;53.612;-2.416;2023-12-04T12:23:33;98130.34;;;3.48;99.85
79707;BME280;69200;53.612;-2.416;2023-12-04T12:25:59;98124.50;;;3.51;100.00
79707;BME280;69200;53.612;-2.416;2023-12-04T12:28:24;98125.78;;;3.49;100.00
79707;BME280;69200;53.612;-2.416;2023-12-04T12:30:49;98128.59;;;3.54;100.00
79707;BME280;69200;53.612;-2.416;2023-12-04T12:33:15;98134.41;;;3.51;100.00
79707;BME280;69200;53.612;-2.416;2023-12-04T12:35:41;98126.22;;;3.57;100.00
79707;BME280;69200;53.612;-2.416;2023-12-04T12:38:07;98138.72;;;3.52;100.00
79707;BME280;69200;53.612;-2.416;2023-12-04T12:40:32;98136.97;;;3.57;100.00
79707;BME280;69200;53.612;-2.416;2023-12-04T12:43:05;98126.13;;;3.52;100.00
79707;BME280;69200;53.612;-2.416;2023-12-04T12:45:44;98125.66;;;3.55;100.00
79707;BME280;69200;53.612;-2.416;2023-12-04T12:48:16;98127.53;;;3.55;100.00